sensor_id;sensor_type;location;lat;lon;timestamp;P1;durP1;ratioP1;P2;durP2;ratioP2
20080;SDS011;10200;49.232;9.222;2023-07-09T00:00:04;5.63;;;3.53;;
20080;SDS011;10200;49.232;9.222;2023-07-09T00:02:39;7.32;;;3.63;;
20080;SDS011;10200;49.232;9.222;2023-07-09T00:05:04;6.05;;;3.70;;
20080;SDS011;10200;49.232;9.222;2023-07-09T00:07:31;8.75;;;4.53;;
20080;SDS011;10200;49.232;9.222;2023-07-09T00:09:58;6.20;;;3.63;;
20080;SDS011;10200;49.232;9.222;2023-07-09T00:12:24;9.00;;;3.45;;
20080;SDS011;10200;49.232;9.222;2023-07-09T00:14:51;8.75;;;3.53;;
20080;SDS011;10200;49.232;9.222;2023-07-09T00:17:25;6.78;;;4.28;;
20080;SDS011;10200;49.232;9.222;2023-07-09T00:19:53;5.95;;;4.10;;
20080;SDS011;10200;49.232;9.222;2023-07-09T00:22:19;5.90;;;3.83;;
20080;SDS011;10200;49.232;9.222;2023-07-09T00:24:45;5.38;;;3.10;;
20080;SDS011;10200;49.232;9.222;2023-07-09T00:27:16;5.85;;;3.47;;
20080;SDS011;10200;49.232;9.222;2023-07-09T00:29:44;7.97;;;3.35;;
20080;SDS011;10200;49.232;9.222;2023-07-09T00:32:13;6.75;;;3.47;;
20080;SDS011;10200;49.232;9.222;2023-07-09T00:34:41;6.05;;;3.33;;
20080;SDS011;10200;49.232;9.222;2023-07-09T00:37:17;10.85;;;4.43;;
20080;SDS011;10200;49.232;9.222;2023-07-09T00:39:44;6.13;;;3.92;;
20080;SDS011;10200;49.232;9.222;2023-07-09T00:42:20;7.35;;;4.07;;
20080;SDS011;10200;49.232;9.222;2023-07-09T00:44:50;4.55;;;3.45;;
20080;SDS011;10200;49.232;9.222;2023-07-09T00:47:22;4.57;;;3.63;;
20080;SDS011;10200;49.232;9.222;2023-07-09T00:52:56;8.68;;;4.35;;
20080;SDS011;10200;49.232;9.222;2023-07-09T00:55:51;4.88;;;3.83;;
20080;SDS011;10200;49.232;9.222;2023-07-09T00:58:26;4.75;;;3.53;;
20080;SDS011;10200;49.232;9.222;2023-07-09T01:01:00;4.80;;;3.30;;
20080;SDS011;10200;49.232;9.222;2023-07-09T01:03:36;5.28;;;3.22;;
20080;SDS011;10200;49.232;9.222;2023-07-09T01:06:11;5.18;;;3.65;;
20080;SDS011;10200;49.232;9.222;2023-07-09T01:08:38;9.38;;;3.42;;
20080;SDS011;10200;49.232;9.222;2023-07-09T01:11:18;9.00;;;3.53;;
20080;SDS011;10200;49.232;9.222;2023-07-09T01:13:48;5.53;;;3.85;;
20080;SDS011;10200;49.232;9.222;2023-07-09T01:16:16;5.80;;;3.85;;
20080;SDS011;10200;49.232;9.222;2023-07-09T01:18:43;5.55;;;3.70;;
20080;SDS011;10200;49.232;9.222;2023-07-09T01:21:09;5.88;;;3.78;;
20080;SDS011;10200;49.232;9.222;2023-07-09T01:23:41;5.00;;;4.05;;
20080;SDS011;10200;49.232;9.222;2023-07-09T01:26:09;5.90;;;3.65;;
20080;SDS011;10200;49.232;9.222;2023-07-09T01:28:36;6.22;;;3.47;;
20080;SDS011;10200;49.232;9.222;2023-07-09T01:31:02;4.93;;;3.25;;
20080;SDS011;10200;49.232;9.222;2023-07-09T01:33:29;7.78;;;4.03;;
20080;SDS011;10200;49.232;9.222;2023-07-09T01:35:55;5.30;;;3.97;;
20080;SDS011;10200;49.232;9.222;2023-07-09T01:38:25;5.60;;;3.75;;
20080;SDS011;10200;49.232;9.222;2023-07-09T01:40:55;6.80;;;3.35;;
20080;SDS011;10200;49.232;9.222;2023-07-09T01:43:21;7.05;;;3.85;;
20080;SDS011;10200;49.232;9.222;2023-07-09T01:45:47;8.40;;;4.13;;
20080;SDS011;10200;49.232;9.222;2023-07-09T01:48:15;5.95;;;3.33;;
20080;SDS011;10200;49.232;9.222;2023-07-09T01:50:41;8.68;;;3.97;;
20080;SDS011;10200;49.232;9.222;2023-07-09T01:53:08;4.82;;;3.38;;
20080;SDS011;10200;49.232;9.222;2023-07-09T01:55:36;5.68;;;4.05;;
20080;SDS011;10200;49.232;9.222;2023-07-09T01:58:02;6.97;;;3.72;;
20080;SDS011;10200;49.232;9.222;2023-07-09T02:00:31;7.95;;;3.85;;
20080;SDS011;10200;49.232;9.222;2023-07-09T02:02:58;6.90;;;4.30;;
20080;SDS011;10200;49.232;9.222;2023-07-09T02:05:25;4.63;;;3.28;;
20080;SDS011;10200;49.232;9.222;2023-07-09T02:07:51;9.23;;;3.97;;
20080;SDS011;10200;49.232;9.222;2023-07-09T02:10:17;8.75;;;3.88;;
20080;SDS011;10200;49.232;9.222;2023-07-09T02:12:43;5.10;;;3.75;;
20080;SDS011;10200;49.232;9.222;2023-07-09T02:15:10;5.50;;;3.78;;
20080;SDS011;10200;49.232;9.222;2023-07-09T02:17:36;5.47;;;3.63;;
20080;SDS011;10200;49.232;9.222;2023-07-09T02:20:02;8.80;;;4.20;;
20080;SDS011;10200;49.232;9.222;2023-07-09T02:22:30;6.75;;;3.70;;
20080;SDS011;10200;49.232;9.222;2023-07-09T02:24:55;6.38;;;3.75;;
20080;SDS011;10200;49.232;9.222;2023-07-09T02:27:21;7.40;;;3.47;;
20080;SDS011;10200;49.232;9.222;2023-07-09T02:29:47;6.28;;;3.80;;
20080;SDS011;10200;49.232;9.222;2023-07-09T02:32:16;6.10;;;4.00;;
20080;SDS011;10200;49.232;9.222;2023-07-09T02:34:44;6.63;;;4.82;;
20080;SDS011;10200;49.232;9.222;2023-07-09T02:37:13;3.78;;;3.00;;
20080;SDS011;10200;49.232;9.222;2023-07-09T02:39:40;7.40;;;4.00;;
20080;SDS011;10200;49.232;9.222;2023-07-09T02:42:08;5.22;;;3.83;;
20080;SDS011;10200;49.232;9.222;2023-07-09T02:44:36;7.95;;;4.00;;
20080;SDS011;10200;49.232;9.222;2023-07-09T02:47:02;4.53;;;3.15;;
20080;SDS011;10200;49.232;9.222;2023-07-09T02:49:27;7.28;;;3.55;;
20080;SDS011;10200;49.232;9.222;2023-07-09T02:51:54;6.82;;;3.83;;
20080;SDS011;10200;49.232;9.222;2023-07-09T02:54:20;5.25;;;3.65;;
20080;SDS011;10200;49.232;9.222;2023-07-09T02:56:49;6.30;;;3.95;;
20080;SDS011;10200;49.232;9.222;2023-07-09T02:59:14;8.25;;;3.80;;
20080;SDS011;10200;49.232;9.222;2023-07-09T03:01:40;8.68;;;4.03;;
20080;SDS011;10200;49.232;9.222;2023-07-09T03:04:06;6.18;;;3.60;;
20080;SDS011;10200;49.232;9.222;2023-07-09T03:06:33;3.95;;;3.20;;
20080;SDS011;10200;49.232;9.222;2023-07-09T03:08:59;7.50;;;4.32;;
20080;SDS011;10200;49.232;9.222;2023-07-09T03:11:27;5.20;;;3.97;;
20080;SDS011;10200;49.232;9.222;2023-07-09T03:13:57;6.82;;;3.67;;
20080;SDS011;10200;49.232;9.222;2023-07-09T03:16:23;7.03;;;3.85;;
20080;SDS011;10200;49.232;9.222;2023-07-09T03:18:51;7.07;;;4.28;;
20080;SDS011;10200;49.232;9.222;2023-07-09T03:21:16;5.30;;;3.05;;
20080;SDS011;10200;49.232;9.222;2023-07-09T03:23:42;5.80;;;3.65;;
20080;SDS011;10200;49.232;9.222;2023-07-09T03:26:07;6.22;;;3.55;;
20080;SDS011;10200;49.232;9.222;2023-07-09T03:28:33;6.70;;;3.38;;
20080;SDS011;10200;49.232;9.222;2023-07-09T03:30:59;7.82;;;4.13;;
20080;SDS011;10200;49.232;9.222;2023-07-09T03:33:25;6.70;;;3.72;;
20080;SDS011;10200;49.232;9.222;2023-07-09T03:35:51;8.18;;;4.68;;
20080;SDS011;10200;49.232;9.222;2023-07-09T03:38:17;4.82;;;3.80;;
20080;SDS011;10200;49.232;9.222;2023-07-09T03:40:43;3.60;;;3.10;;
20080;SDS011;10200;49.232;9.222;2023-07-09T03:43:09;6.15;;;3.95;;
20080;SDS011;10200;49.232;9.222;2023-07-09T03:45:36;7.30;;;4.15;;
20080;SDS011;10200;49.232;9.222;2023-07-09T03:48:03;4.88;;;3.63;;
20080;SDS011;10200;49.232;9.222;2023-07-09T03:50:29;9.93;;;4.28;;
20080;SDS011;10200;49.232;9.222;2023-07-09T03:52:55;8.30;;;3.80;;
20080;SDS011;10200;49.232;9.222;2023-07-09T03:55:21;6.15;;;3.65;;
20080;SDS011;10200;49.232;9.222;2023-07-09T03:57:47;8.05;;;3.47;;
20080;SDS011;10200;49.232;9.222;2023-07-09T04:00:13;9.07;;;3.85;;
20080;SDS011;10200;49.232;9.222;2023-07-09T04:02:39;6.95;;;3.85;;
20080;SDS011;10200;49.232;9.222;2023-07-09T04:05:06;6.20;;;3.55;;
20080;SDS011;10200;49.232;9.222;2023-07-09T04:07:33;7.38;;;4.22;;
20080;SDS011;10200;49.232;9.222;2023-07-09T04:09:59;6.40;;;3.50;;
20080;SDS011;10200;49.232;9.222;2023-07-09T04:12:25;6.00;;;3.58;;
20080;SDS011;10200;49.232;9.222;2023-07-09T04:14:50;16.55;;;3.88;;
20080;SDS011;10200;49.232;9.222;2023-07-09T04:17:16;5.35;;;4.30;;
20080;SDS011;10200;49.232;9.222;2023-07-09T04:19:42;7.45;;;3.88;;
20080;SDS011;10200;49.232;9.222;2023-07-09T04:22:08;5.68;;;3.97;;
20080;SDS011;10200;49.232;9.222;2023-07-09T04:24:38;8.68;;;4.20;;
20080;SDS011;10200;49.232;9.222;2023-07-09T04:27:03;6.32;;;4.13;;
20080;SDS011;10200;49.232;9.222;2023-07-09T04:29:30;8.32;;;3.47;;
20080;SDS011;10200;49.232;9.222;2023-07-09T04:31:58;5.60;;;3.67;;
20080;SDS011;10200;49.232;9.222;2023-07-09T04:34:24;6.00;;;3.72;;
20080;SDS011;10200;49.232;9.222;2023-07-09T04:36:50;9.35;;;4.32;;
20080;SDS011;10200;49.232;9.222;2023-07-09T04:39:16;5.82;;;3.90;;
20080;SDS011;10200;49.232;9.222;2023-07-09T04:41:41;7.32;;;3.83;;
20080;SDS011;10200;49.232;9.222;2023-07-09T04:44:07;6.05;;;3.75;;
20080;SDS011;10200;49.232;9.222;2023-07-09T04:46:32;3.75;;;3.22;;
20080;SDS011;10200;49.232;9.222;2023-07-09T04:48:58;7.63;;;3.30;;
20080;SDS011;10200;49.232;9.222;2023-07-09T04:51:25;5.20;;;3.45;;
20080;SDS011;10200;49.232;9.222;2023-07-09T04:53:51;6.75;;;3.70;;
20080;SDS011;10200;49.232;9.222;2023-07-09T04:56:16;6.40;;;3.58;;
20080;SDS011;10200;49.232;9.222;2023-07-09T04:58:42;7.78;;;3.63;;
20080;SDS011;10200;49.232;9.222;2023-07-09T05:01:08;11.40;;;3.97;;
20080;SDS011;10200;49.232;9.222;2023-07-09T05:03:34;5.13;;;4.05;;
20080;SDS011;10200;49.232;9.222;2023-07-09T05:05:59;11.18;;;4.35;;
20080;SDS011;10200;49.232;9.222;2023-07-09T05:08:25;11.75;;;3.72;;
20080;SDS011;10200;49.232;9.222;2023-07-09T05:10:51;6.20;;;3.40;;
20080;SDS011;10200;49.232;9.222;2023-07-09T05:13:17;6.05;;;3.42;;
20080;SDS011;10200;49.232;9.222;2023-07-09T05:15:44;5.70;;;3.80;;
20080;SDS011;10200;49.232;9.222;2023-07-09T05:18:11;9.13;;;4.03;;
20080;SDS011;10200;49.232;9.222;2023-07-09T05:20:40;8.50;;;4.10;;
20080;SDS011;10200;49.232;9.222;2023-07-09T05:23:06;6.72;;;3.63;;
20080;SDS011;10200;49.232;9.222;2023-07-09T05:25:33;6.35;;;4.30;;
20080;SDS011;10200;49.232;9.222;2023-07-09T05:27:58;6.30;;;3.63;;
20080;SDS011;10200;49.232;9.222;2023-07-09T05:30:25;7.93;;;3.83;;
20080;SDS011;10200;49.232;9.222;2023-07-09T05:32:50;5.18;;;4.10;;
20080;SDS011;10200;49.232;9.222;2023-07-09T05:35:18;8.20;;;3.72;;
20080;SDS011;10200;49.232;9.222;2023-07-09T05:37:44;10.20;;;3.97;;
20080;SDS011;10200;49.232;9.222;2023-07-09T05:40:09;5.43;;;3.80;;
20080;SDS011;10200;49.232;9.222;2023-07-09T05:42:35;3.88;;;3.13;;
20080;SDS011;10200;49.232;9.222;2023-07-09T05:45:01;6.15;;;3.50;;
20080;SDS011;10200;49.232;9.222;2023-07-09T05:47:26;7.20;;;3.83;;
20080;SDS011;10200;49.232;9.222;2023-07-09T05:49:52;7.07;;;4.13;;
20080;SDS011;10200;49.232;9.222;2023-07-09T05:52:18;4.60;;;3.47;;
20080;SDS011;10200;49.232;9.222;2023-07-09T05:54:45;7.18;;;3.95;;
20080;SDS011;10200;49.232;9.222;2023-07-09T05:57:14;5.13;;;3.60;;
20080;SDS011;10200;49.232;9.222;2023-07-09T05:59:39;5.60;;;3.70;;
20080;SDS011;10200;49.232;9.222;2023-07-09T06:02:07;4.38;;;3.45;;
20080;SDS011;10200;49.232;9.222;2023-07-09T06:04:36;5.75;;;3.72;;
20080;SDS011;10200;49.232;9.222;2023-07-09T06:07:02;5.68;;;3.55;;
20080;SDS011;10200;49.232;9.222;2023-07-09T06:09:28;4.93;;;3.50;;
20080;SDS011;10200;49.232;9.222;2023-07-09T06:11:54;4.93;;;3.05;;
20080;SDS011;10200;49.232;9.222;2023-07-09T06:14:20;4.15;;;3.60;;
20080;SDS011;10200;49.232;9.222;2023-07-09T06:16:46;8.13;;;3.55;;
20080;SDS011;10200;49.232;9.222;2023-07-09T06:19:11;6.18;;;3.50;;
20080;SDS011;10200;49.232;9.222;2023-07-09T06:21:38;6.40;;;3.15;;
20080;SDS011;10200;49.232;9.222;2023-07-09T06:24:05;5.10;;;3.60;;
20080;SDS011;10200;49.232;9.222;2023-07-09T06:26:31;7.65;;;3.25;;
20080;SDS011;10200;49.232;9.222;2023-07-09T06:28:56;5.13;;;3.28;;
20080;SDS011;10200;49.232;9.222;2023-07-09T06:31:22;4.63;;;3.65;;
20080;SDS011;10200;49.232;9.222;2023-07-09T06:33:49;3.90;;;2.95;;
20080;SDS011;10200;49.232;9.222;2023-07-09T06:36:16;4.57;;;3.28;;
20080;SDS011;10200;49.232;9.222;2023-07-09T06:38:43;6.13;;;3.40;;
20080;SDS011;10200;49.232;9.222;2023-07-09T06:41:09;4.22;;;3.28;;
20080;SDS011;10200;49.232;9.222;2023-07-09T06:43:35;5.82;;;3.83;;
20080;SDS011;10200;49.232;9.222;2023-07-09T06:46:03;6.10;;;3.33;;
20080;SDS011;10200;49.232;9.222;2023-07-09T06:48:30;6.30;;;3.50;;
20080;SDS011;10200;49.232;9.222;2023-07-09T06:50:56;7.53;;;3.60;;
20080;SDS011;10200;49.232;9.222;2023-07-09T06:53:23;6.15;;;2.90;;
20080;SDS011;10200;49.232;9.222;2023-07-09T06:55:50;5.45;;;3.22;;
20080;SDS011;10200;49.232;9.222;2023-07-09T06:58:18;5.88;;;3.55;;
20080;SDS011;10200;49.232;9.222;2023-07-09T07:00:44;5.63;;;3.40;;
20080;SDS011;10200;49.232;9.222;2023-07-09T07:03:11;8.30;;;3.53;;
20080;SDS011;10200;49.232;9.222;2023-07-09T07:05:36;8.45;;;3.42;;
20080;SDS011;10200;49.232;9.222;2023-07-09T07:08:02;6.88;;;3.53;;
20080;SDS011;10200;49.232;9.222;2023-07-09T07:10:28;8.15;;;3.85;;
20080;SDS011;10200;49.232;9.222;2023-07-09T07:12:55;4.03;;;2.83;;
20080;SDS011;10200;49.232;9.222;2023-07-09T07:15:21;6.03;;;3.45;;
20080;SDS011;10200;49.232;9.222;2023-07-09T07:17:47;6.28;;;3.38;;
20080;SDS011;10200;49.232;9.222;2023-07-09T07:20:13;3.60;;;2.80;;
20080;SDS011;10200;49.232;9.222;2023-07-09T07:22:40;5.13;;;3.55;;
20080;SDS011;10200;49.232;9.222;2023-07-09T07:25:06;14.02;;;3.58;;
20080;SDS011;10200;49.232;9.222;2023-07-09T07:27:33;3.45;;;3.03;;
20080;SDS011;10200;49.232;9.222;2023-07-09T07:29:58;4.22;;;3.45;;
20080;SDS011;10200;49.232;9.222;2023-07-09T07:32:25;3.90;;;2.75;;
20080;SDS011;10200;49.232;9.222;2023-07-09T07:34:50;6.32;;;3.50;;
20080;SDS011;10200;49.232;9.222;2023-07-09T07:37:18;4.75;;;3.08;;
20080;SDS011;10200;49.232;9.222;2023-07-09T07:39:47;5.78;;;3.25;;
20080;SDS011;10200;49.232;9.222;2023-07-09T07:42:13;7.93;;;3.35;;
20080;SDS011;10200;49.232;9.222;2023-07-09T07:44:39;4.90;;;2.85;;
20080;SDS011;10200;49.232;9.222;2023-07-09T07:47:05;5.50;;;3.42;;
20080;SDS011;10200;49.232;9.222;2023-07-09T07:49:31;5.82;;;3.35;;
20080;SDS011;10200;49.232;9.222;2023-07-09T07:51:57;5.60;;;3.13;;
20080;SDS011;10200;49.232;9.222;2023-07-09T07:54:22;5.57;;;2.92;;
20080;SDS011;10200;49.232;9.222;2023-07-09T07:56:48;6.65;;;3.53;;
20080;SDS011;10200;49.232;9.222;2023-07-09T07:59:14;4.07;;;3.17;;
20080;SDS011;10200;49.232;9.222;2023-07-09T08:01:40;5.82;;;3.42;;
20080;SDS011;10200;49.232;9.222;2023-07-09T08:04:05;6.05;;;3.15;;
20080;SDS011;10200;49.232;9.222;2023-07-09T08:06:31;5.75;;;2.95;;
20080;SDS011;10200;49.232;9.222;2023-07-09T08:08:57;3.97;;;3.00;;
20080;SDS011;10200;49.232;9.222;2023-07-09T08:11:23;6.25;;;3.20;;
20080;SDS011;10200;49.232;9.222;2023-07-09T08:13:49;5.53;;;3.55;;
20080;SDS011;10200;49.232;9.222;2023-07-09T08:16:15;4.63;;;2.85;;
20080;SDS011;10200;49.232;9.222;2023-07-09T08:18:40;7.72;;;3.58;;
20080;SDS011;10200;49.232;9.222;2023-07-09T08:21:06;6.55;;;3.40;;
20080;SDS011;10200;49.232;9.222;2023-07-09T08:23:32;6.25;;;3.47;;
20080;SDS011;10200;49.232;9.222;2023-07-09T08:25:58;4.18;;;2.67;;
20080;SDS011;10200;49.232;9.222;2023-07-09T08:28:27;8.98;;;3.50;;
20080;SDS011;10200;49.232;9.222;2023-07-09T08:30:53;4.15;;;3.22;;
20080;SDS011;10200;49.232;9.222;2023-07-09T08:33:20;4.57;;;3.95;;
20080;SDS011;10200;49.232;9.222;2023-07-09T08:35:48;5.15;;;3.38;;
20080;SDS011;10200;49.232;9.222;2023-07-09T08:38:15;8.50;;;3.25;;
20080;SDS011;10200;49.232;9.222;2023-07-09T08:40:40;4.20;;;2.70;;
20080;SDS011;10200;49.232;9.222;2023-07-09T08:43:18;5.43;;;2.90;;
20080;SDS011;10200;49.232;9.222;2023-07-09T08:46:00;5.22;;;3.13;;
20080;SDS011;10200;49.232;9.222;2023-07-09T08:48:46;4.50;;;3.25;;
20080;SDS011;10200;49.232;9.222;2023-07-09T08:51:17;4.97;;;2.78;;
20080;SDS011;10200;49.232;9.222;2023-07-09T08:53:50;5.25;;;3.00;;
20080;SDS011;10200;49.232;9.222;2023-07-09T08:56:21;3.88;;;2.53;;
20080;SDS011;10200;49.232;9.222;2023-07-09T08:58:47;7.60;;;3.65;;
20080;SDS011;10200;49.232;9.222;2023-07-09T09:01:19;6.35;;;3.15;;
20080;SDS011;10200;49.232;9.222;2023-07-09T09:03:48;2.97;;;2.65;;
20080;SDS011;10200;49.232;9.222;2023-07-09T09:06:29;5.15;;;3.20;;
20080;SDS011;10200;49.232;9.222;2023-07-09T09:14:09;7.32;;;3.38;;
20080;SDS011;10200;49.232;9.222;2023-07-09T09:16:50;3.92;;;2.83;;
20080;SDS011;10200;49.232;9.222;2023-07-09T09:19:26;3.55;;;3.00;;
20080;SDS011;10200;49.232;9.222;2023-07-09T09:22:00;3.13;;;2.67;;
20080;SDS011;10200;49.232;9.222;2023-07-09T09:24:41;4.32;;;3.03;;
20080;SDS011;10200;49.232;9.222;2023-07-09T09:27:30;7.45;;;3.17;;
20080;SDS011;10200;49.232;9.222;2023-07-09T09:29:55;3.88;;;2.30;;
20080;SDS011;10200;49.232;9.222;2023-07-09T09:32:28;4.72;;;2.50;;
20080;SDS011;10200;49.232;9.222;2023-07-09T09:35:10;2.65;;;2.40;;
20080;SDS011;10200;49.232;9.222;2023-07-09T09:37:43;3.97;;;2.92;;
20080;SDS011;10200;49.232;9.222;2023-07-09T09:40:17;4.70;;;3.10;;
20080;SDS011;10200;49.232;9.222;2023-07-09T09:42:48;3.22;;;2.67;;
20080;SDS011;10200;49.232;9.222;2023-07-09T09:45:16;3.55;;;2.90;;
20080;SDS011;10200;49.232;9.222;2023-07-09T09:47:47;4.63;;;2.53;;
20080;SDS011;10200;49.232;9.222;2023-07-09T09:50:14;5.07;;;2.75;;
20080;SDS011;10200;49.232;9.222;2023-07-09T09:52:45;5.60;;;2.83;;
20080;SDS011;10200;49.232;9.222;2023-07-09T09:55:13;3.90;;;2.80;;
20080;SDS011;10200;49.232;9.222;2023-07-09T09:57:49;6.75;;;3.08;;
20080;SDS011;10200;49.232;9.222;2023-07-09T10:00:16;4.10;;;2.55;;
20080;SDS011;10200;49.232;9.222;2023-07-09T10:02:42;4.45;;;2.70;;
20080;SDS011;10200;49.232;9.222;2023-07-09T10:05:16;4.10;;;2.65;;
20080;SDS011;10200;49.232;9.222;2023-07-09T10:08:03;4.45;;;3.28;;
20080;SDS011;10200;49.232;9.222;2023-07-09T10:10:37;3.38;;;2.53;;
20080;SDS011;10200;49.232;9.222;2023-07-09T10:18:19;3.83;;;2.63;;
20080;SDS011;10200;49.232;9.222;2023-07-09T10:26:39;4.32;;;3.08;;
20080;SDS011;10200;49.232;9.222;2023-07-09T10:31:57;4.22;;;2.60;;
20080;SDS011;10200;49.232;9.222;2023-07-09T10:34:32;5.07;;;3.05;;
20080;SDS011;10200;49.232;9.222;2023-07-09T10:39:57;3.38;;;2.83;;
20080;SDS011;10200;49.232;9.222;2023-07-09T10:42:25;8.30;;;3.40;;
20080;SDS011;10200;49.232;9.222;2023-07-09T10:45:00;4.80;;;2.95;;
20080;SDS011;10200;49.232;9.222;2023-07-09T10:47:34;4.15;;;3.05;;
20080;SDS011;10200;49.232;9.222;2023-07-09T10:50:02;3.70;;;2.90;;
20080;SDS011;10200;49.232;9.222;2023-07-09T10:52:35;5.70;;;2.50;;
20080;SDS011;10200;49.232;9.222;2023-07-09T10:55:21;3.97;;;2.95;;
20080;SDS011;10200;49.232;9.222;2023-07-09T10:58:02;4.97;;;2.40;;
20080;SDS011;10200;49.232;9.222;2023-07-09T11:00:36;5.63;;;2.05;;
20080;SDS011;10200;49.232;9.222;2023-07-09T11:03:47;4.97;;;2.50;;
20080;SDS011;10200;49.232;9.222;2023-07-09T11:05:54;8.38;;;2.80;;
20080;SDS011;10200;49.232;9.222;2023-07-09T11:08:21;4.47;;;2.80;;
20080;SDS011;10200;49.232;9.222;2023-07-09T11:10:59;2.90;;;2.55;;
20080;SDS011;10200;49.232;9.222;2023-07-09T11:15:58;3.85;;;2.55;;
20080;SDS011;10200;49.232;9.222;2023-07-09T11:18:32;5.53;;;2.53;;
20080;SDS011;10200;49.232;9.222;2023-07-09T11:21:03;4.47;;;2.40;;
20080;SDS011;10200;49.232;9.222;2023-07-09T11:23:50;3.10;;;2.72;;
20080;SDS011;10200;49.232;9.222;2023-07-09T11:26:28;3.58;;;3.00;;
20080;SDS011;10200;49.232;9.222;2023-07-09T11:31:40;3.25;;;2.28;;
20080;SDS011;10200;49.232;9.222;2023-07-09T11:41:52;4.78;;;3.05;;
20080;SDS011;10200;49.232;9.222;2023-07-09T11:44:19;6.00;;;3.25;;
20080;SDS011;10200;49.232;9.222;2023-07-09T11:49:20;3.90;;;2.45;;
20080;SDS011;10200;49.232;9.222;2023-07-09T11:51:51;4.88;;;2.30;;
20080;SDS011;10200;49.232;9.222;2023-07-09T11:54:20;5.57;;;2.15;;
20080;SDS011;10200;49.232;9.222;2023-07-09T11:56:53;5.30;;;3.00;;
20080;SDS011;10200;49.232;9.222;2023-07-09T11:59:22;5.97;;;2.90;;
20080;SDS011;10200;49.232;9.222;2023-07-09T12:01:48;6.93;;;3.00;;
20080;SDS011;10200;49.232;9.222;2023-07-09T12:04:18;3.13;;;2.50;;
20080;SDS011;10200;49.232;9.222;2023-07-09T12:06:45;7.63;;;2.53;;
20080;SDS011;10200;49.232;9.222;2023-07-09T12:09:19;2.70;;;2.50;;
20080;SDS011;10200;49.232;9.222;2023-07-09T12:11:46;4.03;;;2.58;;
20080;SDS011;10200;49.232;9.222;2023-07-09T12:14:18;3.20;;;2.50;;
20080;SDS011;10200;49.232;9.222;2023-07-09T12:16:49;4.65;;;3.03;;
20080;SDS011;10200;49.232;9.222;2023-07-09T12:19:18;4.13;;;2.63;;
20080;SDS011;10200;49.232;9.222;2023-07-09T12:21:48;3.97;;;2.50;;
20080;SDS011;10200;49.232;9.222;2023-07-09T12:26:52;3.25;;;2.50;;
20080;SDS011;10200;49.232;9.222;2023-07-09T12:29:26;3.17;;;2.30;;
20080;SDS011;10200;49.232;9.222;2023-07-09T12:31:55;4.20;;;2.40;;
20080;SDS011;10200;49.232;9.222;2023-07-09T12:34:21;5.00;;;2.80;;
20080;SDS011;10200;49.232;9.222;2023-07-09T12:36:48;4.50;;;2.63;;
20080;SDS011;10200;49.232;9.222;2023-07-09T12:39:16;4.13;;;2.92;;
20080;SDS011;10200;49.232;9.222;2023-07-09T12:41:47;2.65;;;2.25;;
20080;SDS011;10200;49.232;9.222;2023-07-09T12:44:23;3.55;;;2.65;;
20080;SDS011;10200;49.232;9.222;2023-07-09T12:46:49;2.67;;;2.30;;
20080;SDS011;10200;49.232;9.222;2023-07-09T12:49:22;5.78;;;2.42;;
20080;SDS011;10200;49.232;9.222;2023-07-09T12:51:49;6.72;;;2.92;;
20080;SDS011;10200;49.232;9.222;2023-07-09T12:54:16;3.42;;;2.47;;
20080;SDS011;10200;49.232;9.222;2023-07-09T12:56:43;4.05;;;2.47;;
20080;SDS011;10200;49.232;9.222;2023-07-09T12:59:16;4.07;;;2.72;;
20080;SDS011;10200;49.232;9.222;2023-07-09T13:01:48;5.18;;;2.83;;
20080;SDS011;10200;49.232;9.222;2023-07-09T13:04:15;3.92;;;2.70;;
20080;SDS011;10200;49.232;9.222;2023-07-09T13:06:41;6.00;;;3.17;;
20080;SDS011;10200;49.232;9.222;2023-07-09T13:09:18;5.28;;;3.38;;
20080;SDS011;10200;49.232;9.222;2023-07-09T13:11:46;4.15;;;2.70;;
20080;SDS011;10200;49.232;9.222;2023-07-09T13:14:17;4.15;;;2.50;;
20080;SDS011;10200;49.232;9.222;2023-07-09T13:16:45;6.68;;;2.90;;
20080;SDS011;10200;49.232;9.222;2023-07-09T13:19:11;4.53;;;2.63;;
20080;SDS011;10200;49.232;9.222;2023-07-09T13:21:37;4.95;;;3.15;;
20080;SDS011;10200;49.232;9.222;2023-07-09T13:24:09;3.38;;;2.65;;
20080;SDS011;10200;49.232;9.222;2023-07-09T13:26:38;5.35;;;2.60;;
20080;SDS011;10200;49.232;9.222;2023-07-09T13:29:10;2.65;;;2.38;;
20080;SDS011;10200;49.232;9.222;2023-07-09T13:31:40;5.85;;;2.50;;
20080;SDS011;10200;49.232;9.222;2023-07-09T13:34:25;6.50;;;2.50;;
20080;SDS011;10200;49.232;9.222;2023-07-09T13:36:53;6.40;;;3.10;;
20080;SDS011;10200;49.232;9.222;2023-07-09T13:39:21;3.60;;;2.40;;
20080;SDS011;10200;49.232;9.222;2023-07-09T13:41:47;5.07;;;2.40;;
20080;SDS011;10200;49.232;9.222;2023-07-09T13:44:19;4.38;;;2.85;;
20080;SDS011;10200;49.232;9.222;2023-07-09T13:46:46;3.92;;;2.67;;
20080;SDS011;10200;49.232;9.222;2023-07-09T13:49:13;7.13;;;3.63;;
20080;SDS011;10200;49.232;9.222;2023-07-09T13:51:43;9.27;;;3.08;;
20080;SDS011;10200;49.232;9.222;2023-07-09T13:56:42;5.32;;;3.00;;
20080;SDS011;10200;49.232;9.222;2023-07-09T13:59:19;4.15;;;3.00;;
20080;SDS011;10200;49.232;9.222;2023-07-09T14:01:47;4.38;;;2.80;;
20080;SDS011;10200;49.232;9.222;2023-07-09T14:04:15;4.75;;;2.50;;
20080;SDS011;10200;49.232;9.222;2023-07-09T14:06:42;4.70;;;2.75;;
20080;SDS011;10200;49.232;9.222;2023-07-09T14:09:11;7.80;;;2.83;;
20080;SDS011;10200;49.232;9.222;2023-07-09T14:11:40;7.88;;;2.80;;
20080;SDS011;10200;49.232;9.222;2023-07-09T14:14:20;5.63;;;2.67;;
20080;SDS011;10200;49.232;9.222;2023-07-09T14:16:55;3.83;;;2.42;;
20080;SDS011;10200;49.232;9.222;2023-07-09T14:19:21;7.70;;;3.22;;
20080;SDS011;10200;49.232;9.222;2023-07-09T14:21:48;3.90;;;2.65;;
20080;SDS011;10200;49.232;9.222;2023-07-09T14:24:19;5.40;;;2.85;;
20080;SDS011;10200;49.232;9.222;2023-07-09T14:26:50;6.13;;;3.15;;
20080;SDS011;10200;49.232;9.222;2023-07-09T14:29:16;5.47;;;2.50;;
20080;SDS011;10200;49.232;9.222;2023-07-09T14:31:44;6.22;;;2.80;;
20080;SDS011;10200;49.232;9.222;2023-07-09T14:34:16;4.15;;;2.65;;
20080;SDS011;10200;49.232;9.222;2023-07-09T14:36:46;5.50;;;2.60;;
20080;SDS011;10200;49.232;9.222;2023-07-09T14:39:13;9.65;;;2.83;;
20080;SDS011;10200;49.232;9.222;2023-07-09T14:41:39;4.65;;;2.50;;
20080;SDS011;10200;49.232;9.222;2023-07-09T14:44:14;3.65;;;2.40;;
20080;SDS011;10200;49.232;9.222;2023-07-09T14:46:51;4.88;;;2.72;;
20080;SDS011;10200;49.232;9.222;2023-07-09T14:49:18;6.18;;;2.42;;
20080;SDS011;10200;49.232;9.222;2023-07-09T14:51:44;3.78;;;2.33;;
20080;SDS011;10200;49.232;9.222;2023-07-09T14:54:31;4.43;;;2.60;;
20080;SDS011;10200;49.232;9.222;2023-07-09T14:56:57;6.05;;;2.80;;
20080;SDS011;10200;49.232;9.222;2023-07-09T14:59:24;6.75;;;2.75;;
20080;SDS011;10200;49.232;9.222;2023-07-09T15:01:50;3.50;;;2.30;;
20080;SDS011;10200;49.232;9.222;2023-07-09T15:06:46;11.30;;;3.55;;
20080;SDS011;10200;49.232;9.222;2023-07-09T15:09:16;3.42;;;2.58;;
20080;SDS011;10200;49.232;9.222;2023-07-09T15:11:52;6.38;;;2.55;;
20080;SDS011;10200;49.232;9.222;2023-07-09T15:14:20;4.00;;;2.30;;
20080;SDS011;10200;49.232;9.222;2023-07-09T15:16:47;5.40;;;3.03;;
20080;SDS011;10200;49.232;9.222;2023-07-09T15:19:15;3.40;;;2.25;;
20080;SDS011;10200;49.232;9.222;2023-07-09T15:21:42;5.22;;;2.25;;
20080;SDS011;10200;49.232;9.222;2023-07-09T15:24:10;5.68;;;2.63;;
20080;SDS011;10200;49.232;9.222;2023-07-09T15:26:44;8.65;;;3.05;;
20080;SDS011;10200;49.232;9.222;2023-07-09T15:29:16;4.38;;;2.97;;
20080;SDS011;10200;49.232;9.222;2023-07-09T15:31:41;5.15;;;2.55;;
20080;SDS011;10200;49.232;9.222;2023-07-09T15:34:07;7.03;;;3.55;;
20080;SDS011;10200;49.232;9.222;2023-07-09T15:36:33;5.18;;;3.28;;
20080;SDS011;10200;49.232;9.222;2023-07-09T15:38:58;5.13;;;3.45;;
20080;SDS011;10200;49.232;9.222;2023-07-09T15:41:24;5.20;;;2.80;;
20080;SDS011;10200;49.232;9.222;2023-07-09T15:43:50;4.53;;;2.70;;